createdAt,value
2023-04-11T00:04:37.186Z,24.96
2023-04-11T00:10:23.853Z,25.03
2023-04-11T00:16:11.153Z,25.10
2023-04-11T00:21:53.919Z,25.17
2023-04-11T00:27:36.358Z,25.23
2023-04-11T00:33:18.712Z,25.31
2023-04-11T00:44:22.490Z,25.41
2023-04-11T00:55:22.224Z,25.55
2023-04-11T01:01:05.141Z,25.60
2023-04-11T01:06:47.915Z,25.70
2023-04-11T01:13:11.301Z,25.78
2023-04-11T01:18:21.219Z,25.85
2023-04-11T01:24:06.847Z,25.90
2023-04-11T01:29:25.657Z,25.95
2023-04-11T01:35:45.343Z,25.99
2023-04-11T01:41:34.928Z,26.07
2023-04-11T01:45:19.256Z,26.10
2023-04-11T01:51:01.168Z,26.16
2023-04-11T02:02:05.432Z,26.21
2023-04-11T02:07:51.007Z,26.24
2023-04-11T02:13:07.855Z,26.29
2023-04-11T02:18:55.560Z,26.30
2023-04-11T02:24:39.218Z,26.35
2023-04-11T02:30:21.754Z,26.45
2023-04-11T02:35:50.854Z,26.47
2023-04-11T02:42:35.044Z,26.52
2023-04-11T02:47:42.630Z,26.55
2023-04-11T02:58:20.887Z,26.60
2023-04-11T03:04:18.417Z,26.61
2023-04-11T03:15:21.913Z,26.71
2023-04-11T03:21:21.677Z,26.74
2023-04-11T03:32:15.323Z,26.75
2023-04-11T03:37:33.957Z,26.78
2023-04-11T03:43:21.584Z,26.83
2023-04-11T03:49:10.743Z,26.86
2023-04-11T03:55:08.226Z,26.84
2023-04-11T04:07:03.327Z,26.90
2023-04-11T04:12:52.778Z,26.90
2023-04-11T04:17:31.728Z,26.93
2023-04-11T04:23:34.549Z,26.92
2023-04-11T04:28:34.174Z,26.94
2023-04-11T04:34:25.576Z,26.98
2023-04-11T04:40:06.584Z,26.98
2023-04-11T04:46:13.862Z,26.96
2023-04-11T04:52:25.439Z,26.98
2023-04-11T04:58:08.007Z,26.98
2023-04-11T05:09:34.990Z,27.00
2023-04-11T05:15:17.609Z,27.04
2023-04-11T05:20:36.174Z,27.10
2023-04-11T05:25:53.003Z,27.15
2023-04-11T05:31:03.185Z,27.21
2023-04-11T05:36:10.544Z,27.26
2023-04-11T05:41:17.947Z,27.15
2023-04-11T05:46:25.383Z,27.14
2023-04-11T05:51:32.845Z,27.17
2023-04-11T05:56:40.226Z,27.32
2023-04-11T06:01:47.675Z,27.43
2023-04-11T06:06:54.871Z,27.32
2023-04-11T06:12:02.242Z,27.41
2023-04-11T06:17:09.629Z,27.21
2023-04-11T06:22:16.853Z,27.23
2023-04-11T06:27:24.078Z,27.25
2023-04-11T06:32:31.697Z,27.51
2023-04-11T06:37:38.988Z,27.42
2023-04-11T06:42:52.836Z,27.57
2023-04-11T06:48:00.415Z,28.00
2023-04-11T06:53:07.640Z,27.47
2023-04-11T06:58:15.029Z,27.49
2023-04-11T07:03:22.548Z,27.39
2023-04-11T07:08:30.045Z,27.42
2023-04-11T07:13:37.628Z,27.44
2023-04-11T07:18:44.928Z,27.50
2023-04-11T07:23:52.129Z,27.57
2023-04-11T07:28:59.628Z,27.62
2023-04-11T07:34:07.078Z,27.60
2023-04-11T07:39:14.452Z,27.53
2023-04-11T07:44:22.226Z,27.52
2023-04-11T07:49:29.133Z,28.03
2023-04-11T07:54:36.749Z,28.45
2023-04-11T07:59:44.096Z,28.12
2023-04-11T08:04:51.570Z,28.13
2023-04-11T08:09:58.699Z,28.09
2023-04-11T08:15:06.059Z,28.10
2023-04-11T08:20:13.611Z,28.26
2023-04-11T08:25:20.931Z,28.09
2023-04-11T08:30:28.474Z,28.17
2023-04-11T08:35:35.961Z,28.10
2023-04-11T08:40:43.259Z,28.17
2023-04-11T08:45:50.645Z,28.14
2023-04-11T08:50:58.029Z,28.12
2023-04-11T08:56:05.458Z,28.16
2023-04-11T09:01:12.799Z,27.99
2023-04-11T09:06:19.989Z,27.95
2023-04-11T09:11:27.361Z,27.97
2023-04-11T09:16:34.668Z,28.11
2023-04-11T09:21:42.083Z,28.13
2023-04-11T09:26:49.578Z,27.93
2023-04-11T09:31:56.906Z,28.03
2023-04-11T09:37:04.243Z,27.89
2023-04-11T09:42:11.456Z,27.93
2023-04-11T09:47:18.671Z,27.94
2023-04-11T09:52:25.982Z,28.22
2023-04-11T09:57:33.411Z,27.75
2023-04-11T10:02:41.016Z,27.80
2023-04-11T10:07:48.149Z,27.80
2023-04-11T10:12:55.429Z,28.19
2023-04-11T10:18:02.698Z,27.95
2023-04-11T10:23:10.199Z,28.26
2023-04-11T10:28:17.343Z,28.00
2023-04-11T10:33:24.570Z,28.58
2023-04-11T10:38:31.840Z,27.72
2023-04-11T10:43:39.361Z,28.35
2023-04-11T10:48:46.636Z,28.41
2023-04-11T10:53:53.970Z,28.47
2023-04-11T10:59:01.242Z,28.55
2023-04-11T11:04:09.011Z,28.52
2023-04-11T11:09:15.732Z,28.21
2023-04-11T11:14:23.004Z,28.29
2023-04-11T11:19:30.320Z,28.68
2023-04-11T11:24:37.628Z,28.13
2023-04-11T11:29:44.967Z,28.24
2023-04-11T11:34:52.258Z,28.19
2023-04-11T11:39:59.557Z,27.98
2023-04-11T11:45:06.809Z,27.86
2023-04-11T11:50:14.119Z,27.86
2023-04-11T11:55:21.380Z,27.91
2023-04-11T12:00:28.566Z,28.00
2023-04-11T12:05:36.006Z,28.12
2023-04-11T12:10:43.300Z,28.08
2023-04-11T12:15:50.348Z,28.04
2023-04-11T12:20:57.597Z,28.12
2023-04-11T12:26:04.834Z,28.10
2023-04-11T12:31:11.969Z,28.15
2023-04-11T12:36:19.194Z,28.16
2023-04-11T12:46:33.913Z,28.15
2023-04-11T12:51:40.886Z,28.17
2023-04-11T12:56:48.349Z,28.15
2023-04-11T13:01:55.421Z,28.23
2023-04-11T13:07:02.538Z,28.27
2023-04-11T13:12:09.754Z,28.33
2023-04-11T13:17:16.931Z,28.33
2023-04-11T13:22:24.098Z,28.39
2023-04-11T13:27:31.320Z,28.45
2023-04-11T13:32:38.678Z,28.47
2023-04-11T13:37:45.776Z,28.42
2023-04-11T13:42:53.091Z,28.40
2023-04-11T13:48:00.339Z,28.50
2023-04-11T13:53:07.435Z,28.52
2023-04-11T13:58:14.700Z,28.55
2023-04-11T14:03:21.875Z,28.60
2023-04-11T14:08:29.343Z,28.59
2023-04-11T14:13:36.380Z,28.66
2023-04-11T14:18:43.542Z,28.77
2023-04-11T14:23:50.913Z,28.64
2023-04-11T14:28:58.123Z,28.70
2023-04-11T14:34:05.317Z,28.72
2023-04-11T14:39:12.601Z,28.72
2023-04-11T14:44:19.900Z,28.68
2023-04-11T14:49:27.062Z,28.76
2023-04-11T14:54:34.248Z,28.68
2023-04-11T14:59:42.418Z,28.64
2023-04-11T15:04:49.709Z,28.68
2023-04-11T15:09:56.785Z,28.70
2023-04-11T15:15:04.013Z,28.65
2023-04-11T15:20:11.164Z,28.73
2023-04-11T15:25:18.436Z,28.81
2023-04-11T15:30:25.675Z,28.74
2023-04-11T15:35:32.911Z,28.68
2023-04-11T15:40:40.150Z,28.69
2023-04-11T15:45:47.432Z,28.68
2023-04-11T15:50:54.563Z,28.67
2023-04-11T15:56:01.746Z,28.70
2023-04-11T16:01:08.964Z,28.65
2023-04-11T16:06:16.123Z,28.72
2023-04-11T16:11:23.320Z,28.71
2023-04-11T16:16:30.576Z,28.75
2023-04-11T16:21:37.699Z,28.70
2023-04-11T16:26:44.961Z,28.78
2023-04-11T16:31:52.327Z,28.82
2023-04-11T16:36:59.492Z,28.82
2023-04-11T16:42:06.612Z,29.03
2023-04-11T16:47:13.996Z,28.92
2023-04-11T16:52:21.205Z,28.95
2023-04-11T16:57:28.398Z,28.96
2023-04-11T17:02:35.772Z,28.97
2023-04-11T17:07:42.778Z,29.01
2023-04-11T17:12:50.025Z,29.02
2023-04-11T17:17:57.281Z,29.39
2023-04-11T17:23:04.410Z,30.80
2023-04-11T17:28:11.603Z,30.68
2023-04-11T17:33:18.850Z,30.62
2023-04-11T17:38:26.098Z,30.19
2023-04-11T17:43:33.237Z,29.87
2023-04-11T17:48:40.458Z,29.88
2023-04-11T17:53:47.648Z,29.46
2023-04-11T17:58:54.899Z,29.41
2023-04-11T18:04:02.706Z,29.16
2023-04-11T18:09:09.262Z,29.01
2023-04-11T18:14:16.452Z,28.84
2023-04-11T18:19:23.671Z,28.85
2023-04-11T18:24:31.053Z,28.64
2023-04-11T18:29:38.415Z,28.53
2023-04-11T18:34:45.989Z,28.40
2023-04-11T18:39:53.195Z,28.26
2023-04-11T18:45:00.504Z,28.25
2023-04-11T18:50:08.269Z,28.12
2023-04-11T18:55:15.597Z,28.10
2023-04-11T19:00:23.119Z,27.99
2023-04-11T19:05:30.913Z,27.91
2023-04-11T19:10:38.077Z,27.80
2023-04-11T19:15:45.659Z,27.76
2023-04-11T19:20:53.404Z,27.76
2023-04-11T19:26:01.036Z,27.67
2023-04-11T19:31:08.604Z,27.53
2023-04-11T19:36:16.239Z,27.44
2023-04-11T19:41:23.942Z,27.39
2023-04-11T19:46:32.711Z,27.37
2023-04-11T19:51:40.423Z,27.33
2023-04-11T19:56:47.823Z,27.23
2023-04-11T20:01:55.401Z,27.23
2023-04-11T20:07:03.201Z,27.16
2023-04-11T20:12:10.470Z,27.14
2023-04-11T20:17:17.720Z,27.16
2023-04-11T20:22:24.985Z,27.15
2023-04-11T20:27:32.470Z,27.07
2023-04-11T20:32:39.942Z,27.06
2023-04-11T20:37:47.234Z,27.00
2023-04-11T20:42:54.487Z,26.97
2023-04-11T20:48:01.928Z,27.61
2023-04-11T20:53:09.071Z,28.26
2023-04-11T20:58:16.252Z,28.29
2023-04-11T21:03:23.521Z,28.16
2023-04-11T21:08:30.708Z,28.22
2023-04-11T21:13:37.838Z,28.13
2023-04-11T21:18:45.086Z,28.07
2023-04-11T21:23:52.288Z,28.09
2023-04-11T21:28:59.529Z,28.09
2023-04-11T21:34:06.817Z,28.01
2023-04-11T21:39:14.172Z,28.12
2023-04-11T21:44:21.271Z,28.08
2023-04-11T21:49:28.466Z,27.99
2023-04-11T21:54:35.787Z,27.92
2023-04-11T21:59:42.947Z,28.02
2023-04-11T22:05:04.635Z,27.99
2023-04-11T22:09:57.540Z,27.92
2023-04-11T22:15:04.685Z,27.87
2023-04-11T22:20:11.880Z,27.93
2023-04-11T22:25:19.498Z,27.95
2023-04-11T22:30:26.646Z,27.89
2023-04-11T22:35:33.941Z,27.82
2023-04-11T22:40:41.136Z,27.54
2023-04-11T22:45:48.354Z,27.66
2023-04-11T22:50:55.604Z,27.55
2023-04-11T22:56:02.794Z,27.48
2023-04-11T23:01:10.012Z,27.73
2023-04-11T23:06:17.148Z,27.58
2023-04-11T23:11:24.462Z,27.57
2023-04-11T23:16:31.734Z,27.63
2023-04-11T23:21:39.068Z,27.66
2023-04-11T23:26:46.404Z,27.73
2023-04-11T23:31:53.562Z,27.65
2023-04-11T23:37:00.826Z,27.66
2023-04-11T23:42:08.089Z,27.70
2023-04-11T23:47:15.332Z,27.62
2023-04-11T23:52:22.502Z,27.63
2023-04-11T23:57:29.830Z,27.66
